Terminal Aerodrome Forecast
Issued by NWS Charleston, SC

Home | Current Version | Previous Version | Text Only | Print | Product List | Glossary On
Versions: 1 2 3 4 5 6 7 8 9 10 11 12 13 14 15 16 17 18 19 20 21 22 23 24 25
000
FTUS42 KCHS 261700
TAFSAV
TAF
KSAV 261735Z 2618/2718 28020G31KT P6SM BKN035
     FM270200 29013KT P6SM SCT020 BKN080
     FM271300 30014G22KT P6SM SCT025 SCT060=

USA.gov is the U.S. government's official web portal to all federal, state and local government web resources and services.